Drachten, Netherlands
Current Conditions -  °F | °C
As of 1:55 AM on Saturday 25 Oct 2014 (Local Time) from EHLW Reporting Station
Drizzle Drizzle  
Wind Chill: 54°   Ceiling: 500
Heat Index: 54°   Visibility: 1.6mi
Dew Point: 54°   Wind: 13mph
Humidity: 100%   Direction: 200°SSW
Pressure: 29.91"   Gusts: NA
Location:  53.11°N, 6.09°E
Report Text: EHLW 242355Z AUTO 20011KT 2600 R23/P3000 +DZ BKN005 OVC006 12/12 Q1013 YLO
Loading
Personal Weather Stations






























Interactive Weather Map
Tropical Storm Tracking
New forecast layout! Learn more

10-Day Weather Forecast

Advertisements
Track Severe Weather on mobile